createdAt,value
2022-09-20T00:03:43.191Z,2.20
2022-09-20T00:09:05.705Z,2.50
2022-09-20T00:14:27.587Z,2.47
2022-09-20T00:19:49.333Z,2.42
2022-09-20T00:25:11.040Z,2.30
2022-09-20T00:30:34.015Z,2.20
2022-09-20T00:35:55.693Z,1.98
2022-09-20T00:41:17.398Z,2.40
2022-09-20T00:46:45.116Z,2.30
2022-09-20T00:52:06.967Z,2.33
2022-09-20T00:57:35.100Z,2.10
2022-09-20T01:03:03.512Z,2.10
2022-09-20T01:08:25.566Z,2.38
2022-09-20T01:13:47.265Z,2.05
2022-09-20T01:19:20.168Z,2.10
2022-09-20T01:24:59.796Z,1.90
2022-09-20T01:30:24.937Z,2.08
2022-09-20T01:35:53.744Z,1.83
2022-09-20T01:41:24.540Z,1.88
2022-09-20T01:46:53.653Z,2.20
2022-09-20T01:52:21.270Z,2.20
2022-09-20T01:58:20.635Z,1.83
2022-09-20T02:04:11.750Z,2.00
2022-09-20T02:10:17.420Z,1.85
2022-09-20T02:16:16.881Z,1.85
2022-09-20T02:21:46.225Z,2.17
2022-09-20T02:27:16.297Z,2.42
2022-09-20T02:33:05.665Z,2.33
2022-09-20T02:38:56.604Z,1.70
2022-09-20T02:44:55.924Z,1.63
2022-09-20T02:50:41.131Z,2.00
2022-09-20T02:56:26.116Z,1.53
2022-09-20T03:02:01.039Z,1.85
2022-09-20T03:07:47.800Z,2.63
2022-09-20T03:13:31.305Z,1.90
2022-09-20T03:19:06.750Z,2.00
2022-09-20T03:24:33.324Z,1.70
2022-09-20T03:30:33.784Z,2.00
2022-09-20T03:36:24.436Z,1.73
2022-09-20T03:42:11.874Z,1.77
2022-09-20T03:47:58.457Z,2.03
2022-09-20T03:54:17.193Z,1.63
2022-09-20T03:59:59.567Z,1.98
2022-09-20T04:05:48.612Z,1.70
2022-09-20T04:11:30.156Z,1.92
2022-09-20T04:17:05.883Z,1.80
2022-09-20T04:22:29.309Z,2.20
2022-09-20T04:27:57.637Z,1.80
2022-09-20T04:33:27.907Z,2.17
2022-09-20T04:39:01.922Z,2.00
2022-09-20T04:44:52.457Z,1.77
2022-09-20T04:50:52.059Z,2.17
2022-09-20T04:56:28.367Z,2.38
2022-09-20T05:02:12.173Z,2.33
2022-09-20T05:07:49.101Z,2.00
2022-09-20T05:13:34.274Z,2.30
2022-09-20T05:19:09.104Z,2.10
2022-09-20T05:25:20.657Z,2.35
2022-09-20T05:30:54.093Z,2.22
2022-09-20T05:36:54.652Z,2.10
2022-09-20T05:42:32.682Z,2.65
2022-09-20T05:48:11.863Z,2.17
2022-09-20T05:53:56.804Z,2.30
2022-09-20T05:59:30.449Z,2.25
2022-09-20T06:05:16.716Z,2.63
2022-09-20T06:11:07.671Z,2.55
2022-09-20T06:17:16.243Z,2.17
2022-09-20T06:22:47.299Z,2.63
2022-09-20T06:28:17.565Z,2.00
2022-09-20T06:33:57.295Z,2.70
2022-09-20T06:39:49.957Z,2.45
2022-09-20T06:45:11.719Z,2.50
2022-09-20T06:50:36.208Z,2.28
2022-09-20T06:55:58.947Z,2.58
2022-09-20T07:01:29.791Z,3.00
2022-09-20T07:06:59.360Z,2.30
2022-09-20T07:12:21.221Z,3.08
2022-09-20T07:17:45.811Z,2.63
2022-09-20T07:23:08.134Z,3.03
2022-09-20T07:28:31.964Z,2.75
2022-09-20T07:33:53.974Z,3.13
2022-09-20T07:39:16.766Z,2.92
2022-09-20T07:44:42.308Z,2.83
2022-09-20T07:50:04.480Z,3.25
2022-09-20T07:55:26.540Z,2.70
2022-09-20T08:00:55.876Z,3.15
2022-09-20T08:06:18.730Z,2.55
2022-09-20T08:11:42.829Z,3.40
2022-09-20T08:17:04.553Z,2.35
2022-09-20T08:22:26.266Z,2.22
2022-09-20T08:27:54.486Z,2.72
2022-09-20T08:33:16.243Z,2.50
2022-09-20T08:44:27.955Z,2.60
2022-09-20T08:49:56.736Z,2.30
2022-09-20T08:55:24.858Z,1.75
2022-09-20T09:00:47.245Z,1.67
2022-09-20T09:06:18.213Z,2.10
2022-09-20T09:11:45.861Z,1.80
2022-09-20T09:17:11.587Z,2.05
2022-09-20T09:22:42.640Z,2.28
2022-09-20T09:28:07.255Z,1.75
2022-09-20T09:33:30.958Z,2.22
2022-09-20T09:39:38.220Z,1.65
2022-09-20T09:45:43.118Z,1.80
2022-09-20T09:51:15.324Z,2.15
2022-09-20T09:57:15.783Z,2.65
2022-09-20T10:02:53.044Z,1.80
2022-09-20T10:08:45.933Z,2.30
2022-09-20T10:14:29.617Z,2.03
2022-09-20T10:20:08.082Z,1.80
2022-09-20T10:26:08.769Z,2.03
2022-09-20T10:31:38.204Z,2.00
2022-09-20T10:37:01.213Z,1.90
2022-09-20T10:43:00.496Z,2.38
2022-09-20T10:48:31.713Z,1.80
2022-09-20T10:54:14.200Z,1.60
2022-09-20T11:00:08.392Z,1.73
2022-09-20T11:06:01.892Z,1.30
2022-09-20T11:11:31.038Z,1.52
2022-09-20T11:17:10.698Z,2.00
2022-09-20T11:22:48.136Z,1.92
2022-09-20T11:28:45.876Z,1.58
2022-09-20T11:34:31.931Z,1.58
2022-09-20T11:39:55.489Z,1.30
2022-09-20T11:45:17.678Z,1.15
2022-09-20T11:50:51.148Z,1.95
2022-09-20T11:56:30.904Z,1.52
2022-09-20T12:01:56.524Z,1.63
2022-09-20T12:07:39.653Z,1.52
2022-09-20T12:13:25.042Z,1.33
2022-09-20T12:18:53.891Z,2.03
2022-09-20T12:24:19.955Z,1.10
2022-09-20T12:29:47.590Z,1.10
2022-09-20T12:35:38.943Z,1.40
2022-09-20T12:41:08.301Z,1.65
2022-09-20T12:46:34.613Z,1.45
2022-09-20T12:52:14.819Z,1.83
2022-09-20T12:57:36.630Z,1.05
2022-09-20T13:02:59.678Z,1.40
2022-09-20T13:08:24.994Z,1.42
2022-09-20T13:13:54.569Z,1.00
2022-09-20T13:19:29.260Z,1.25
2022-09-20T13:24:56.879Z,1.65
2022-09-20T13:30:25.192Z,1.20
2022-09-20T13:35:49.929Z,1.58
2022-09-20T13:41:12.707Z,1.30
2022-09-20T13:46:44.329Z,1.50
2022-09-20T13:52:30.518Z,1.25
2022-09-20T13:57:53.920Z,1.30
2022-09-20T14:03:20.088Z,1.50
2022-09-20T14:08:44.549Z,1.70
2022-09-20T14:14:07.996Z,2.10
2022-09-20T14:19:37.235Z,1.55
2022-09-20T14:25:18.670Z,1.70
2022-09-20T14:30:40.386Z,1.35
2022-09-20T14:36:02.139Z,1.50
2022-09-20T14:41:34.128Z,1.58
2022-09-20T14:46:56.708Z,1.40
2022-09-20T14:52:34.761Z,1.40
2022-09-20T14:57:59.734Z,1.42
2022-09-20T15:03:27.142Z,1.42
2022-09-20T15:08:48.851Z,1.25
2022-09-20T15:14:10.636Z,1.70
2022-09-20T15:19:32.803Z,1.15
2022-09-20T15:24:54.497Z,1.17
2022-09-20T15:30:19.611Z,0.88
2022-09-20T15:35:43.302Z,1.30
2022-09-20T15:41:05.880Z,1.75
2022-09-20T15:46:27.898Z,1.08
2022-09-20T15:51:50.432Z,1.10
2022-09-20T15:57:12.261Z,1.08
2022-09-20T16:02:34.013Z,1.10
2022-09-20T16:07:58.074Z,1.45
2022-09-20T16:13:19.863Z,1.48
2022-09-20T16:19:00.480Z,1.40
2022-09-20T16:24:24.404Z,1.05
2022-09-20T16:29:46.187Z,1.23
2022-09-20T16:35:08.100Z,1.40
2022-09-20T16:40:30.155Z,1.70
2022-09-20T16:46:00.543Z,1.60
2022-09-20T16:51:25.845Z,1.70
2022-09-20T16:56:49.496Z,2.00
2022-09-20T17:02:12.534Z,2.22
2022-09-20T17:07:34.349Z,2.20
2022-09-20T17:12:59.436Z,1.88
2022-09-20T17:18:21.154Z,1.70
2022-09-20T17:23:50.853Z,1.80
2022-09-20T17:29:15.584Z,1.42
2022-09-20T17:34:37.648Z,1.63
2022-09-20T17:40:01.911Z,1.75
2022-09-20T17:45:23.787Z,1.75
2022-09-20T17:50:56.036Z,2.58
2022-09-20T17:56:17.868Z,2.47
2022-09-20T18:01:40.200Z,2.10
2022-09-20T18:07:03.497Z,2.17
2022-09-20T18:12:25.225Z,2.17
2022-09-20T18:17:50.208Z,1.98
2022-09-20T18:23:14.513Z,2.47
2022-09-20T18:28:36.249Z,3.25
2022-09-20T18:34:02.681Z,2.92
2022-09-20T18:39:29.379Z,2.50
2022-09-20T18:44:51.162Z,2.20
2022-09-20T18:50:13.160Z,2.92
2022-09-20T18:55:35.653Z,2.15
2022-09-20T19:01:26.618Z,2.38
2022-09-20T19:06:59.367Z,2.85
2022-09-20T19:12:29.215Z,3.55
2022-09-20T19:18:12.577Z,4.63
2022-09-20T19:23:40.982Z,3.72
2022-09-20T19:29:02.952Z,4.22
2022-09-20T19:34:26.150Z,6.93
2022-09-20T19:40:00.957Z,6.80
2022-09-20T19:45:44.705Z,6.40
2022-09-20T19:51:11.544Z,6.30
2022-09-20T19:56:48.269Z,6.57
2022-09-20T20:02:11.768Z,6.05
2022-09-20T20:07:46.355Z,5.30
2022-09-20T20:13:38.648Z,4.10
2022-09-20T20:19:19.847Z,4.45
2022-09-20T20:24:52.016Z,3.92
2022-09-20T20:30:13.881Z,4.07
2022-09-20T20:35:37.354Z,4.63
2022-09-20T20:41:03.873Z,4.28
2022-09-20T20:46:25.980Z,4.90
2022-09-20T20:51:48.078Z,4.00
2022-09-20T20:57:09.783Z,4.32
2022-09-20T21:02:31.572Z,4.05
2022-09-20T21:07:53.815Z,3.42
2022-09-20T21:13:15.550Z,3.63
2022-09-20T21:18:38.849Z,3.85
2022-09-20T21:24:03.152Z,4.22
2022-09-20T21:29:24.915Z,3.78
2022-09-20T21:34:46.629Z,3.47
2022-09-20T21:40:10.009Z,3.85
2022-09-20T21:45:31.746Z,4.30
2022-09-20T21:51:00.569Z,4.47
2022-09-20T21:56:22.316Z,3.72
2022-09-20T22:01:44.064Z,4.65
2022-09-20T22:07:05.811Z,4.43
2022-09-20T22:12:27.497Z,4.78
2022-09-20T22:17:49.187Z,4.70
2022-09-20T22:23:11.654Z,4.10
2022-09-20T22:28:34.013Z,5.35
2022-09-20T22:33:58.411Z,4.80
2022-09-20T22:39:20.110Z,3.95
2022-09-20T22:44:41.819Z,3.63
2022-09-20T22:50:05.549Z,3.80
2022-09-20T22:55:27.348Z,3.53
2022-09-20T23:00:51.021Z,3.75
2022-09-20T23:06:19.760Z,3.80
2022-09-20T23:11:42.731Z,3.40
2022-09-20T23:17:04.481Z,4.05
2022-09-20T23:22:26.174Z,4.47
2022-09-20T23:27:47.878Z,4.40
2022-09-20T23:33:09.661Z,4.50
2022-09-20T23:38:31.325Z,5.23
2022-09-20T23:43:53.193Z,4.88
2022-09-20T23:49:15.080Z,4.80
2022-09-20T23:54:36.838Z,4.90
2022-09-20T23:59:59.244Z,5.25
